createdAt,value
2024-05-09T00:00:44.343Z,55.56
2024-05-09T00:03:12.063Z,55.54
2024-05-09T00:05:45.600Z,55.66
2024-05-09T00:08:12.637Z,55.81
2024-05-09T00:10:40.801Z,55.89
2024-05-09T00:13:09.050Z,55.83
2024-05-09T00:15:36.508Z,56.36
2024-05-09T00:18:04.790Z,55.95
2024-05-09T00:20:38.270Z,56.39
2024-05-09T00:23:12.315Z,57.18
2024-05-09T00:25:40.533Z,56.89
2024-05-09T00:28:07.176Z,57.32
2024-05-09T00:30:36.209Z,57.54
2024-05-09T00:33:06.249Z,56.79
2024-05-09T00:35:34.203Z,57.53
2024-05-09T00:38:01.235Z,57.88
2024-05-09T00:40:40.564Z,58.23
2024-05-09T00:43:09.927Z,58.47
2024-05-09T00:45:36.662Z,58.82
2024-05-09T00:48:07.131Z,59.48
2024-05-09T00:50:37.876Z,59.85
2024-05-09T00:53:07.758Z,60.63
2024-05-09T00:55:35.783Z,60.66
2024-05-09T00:58:03.160Z,60.63
2024-05-09T01:00:37.808Z,61.03
2024-05-09T01:03:07.504Z,61.36
2024-05-09T01:05:35.399Z,61.54
2024-05-09T01:08:03.157Z,61.78
2024-05-09T01:10:34.568Z,61.73
2024-05-09T01:13:03.830Z,62.21
2024-05-09T01:15:30.640Z,62.81
2024-05-09T01:17:58.328Z,62.65
2024-05-09T01:20:36.561Z,63.07
2024-05-09T01:23:09.557Z,63.95
2024-05-09T01:25:36.851Z,64.21
2024-05-09T01:28:03.650Z,64.49
2024-05-09T01:30:34.904Z,64.77
2024-05-09T01:33:05.258Z,64.75
2024-05-09T01:35:33.022Z,64.92
2024-05-09T01:37:59.701Z,65.47
2024-05-09T01:40:36.226Z,65.72
2024-05-09T01:43:05.764Z,65.74
2024-05-09T01:45:32.488Z,66.07
2024-05-09T01:47:59.309Z,66.59
2024-05-09T01:50:37.156Z,66.81
2024-05-09T01:53:07.772Z,67.53
2024-05-09T01:55:34.780Z,68.43
2024-05-09T01:58:01.427Z,68.61
2024-05-09T02:00:37.980Z,68.85
2024-05-09T02:03:15.554Z,69.72
2024-05-09T02:05:45.578Z,69.68
2024-05-09T02:08:15.072Z,70.06
2024-05-09T02:10:42.966Z,70.45
2024-05-09T02:13:09.808Z,70.10
2024-05-09T02:15:36.522Z,69.54
2024-05-09T02:18:03.457Z,69.62
2024-05-09T02:20:35.939Z,69.42
2024-05-09T02:23:05.116Z,70.18
2024-05-09T02:25:32.316Z,69.38
2024-05-09T02:27:59.093Z,69.48
2024-05-09T02:30:35.792Z,70.03
2024-05-09T02:33:07.121Z,69.77
2024-05-09T02:35:34.233Z,69.86
2024-05-09T02:38:01.082Z,70.61
2024-05-09T02:40:35.815Z,70.95
2024-05-09T02:43:05.780Z,70.55
2024-05-09T02:45:32.612Z,70.58
2024-05-09T02:47:59.461Z,70.70
2024-05-09T02:50:34.149Z,71.04
2024-05-09T02:53:05.545Z,70.75
2024-05-09T02:55:32.435Z,70.78
2024-05-09T02:57:59.198Z,71.39
2024-05-09T03:00:34.663Z,71.59
2024-05-09T03:03:08.528Z,71.35
2024-05-09T03:05:36.968Z,71.76
2024-05-09T03:08:04.395Z,71.93
2024-05-09T03:10:36.081Z,71.55
2024-05-09T03:13:12.946Z,71.45
2024-05-09T03:15:41.036Z,71.34
2024-05-09T03:18:08.002Z,71.44
2024-05-09T03:20:36.192Z,71.21
2024-05-09T03:23:05.268Z,71.23
2024-05-09T03:25:32.394Z,71.09
2024-05-09T03:27:59.544Z,71.24
2024-05-09T03:30:38.214Z,71.26
2024-05-09T03:33:13.862Z,71.21
2024-05-09T03:35:41.884Z,70.04
2024-05-09T03:38:08.965Z,70.15
2024-05-09T03:40:36.228Z,70.40
2024-05-09T03:43:03.086Z,69.73
2024-05-09T03:45:29.738Z,69.42
2024-05-09T03:47:56.565Z,69.71
2024-05-09T03:50:30.081Z,68.83
2024-05-09T03:53:01.727Z,68.52
2024-05-09T03:55:28.575Z,68.79
2024-05-09T03:57:55.531Z,68.56
2024-05-09T04:00:31.057Z,68.49
2024-05-09T04:03:06.065Z,68.52
2024-05-09T04:05:34.681Z,68.20
2024-05-09T04:08:01.633Z,68.09
2024-05-09T04:10:33.280Z,66.82
2024-05-09T04:13:02.035Z,66.73
2024-05-09T04:15:28.935Z,66.91
2024-05-09T04:17:56.147Z,66.60
2024-05-09T04:20:33.900Z,66.30
2024-05-09T04:23:06.994Z,65.58
2024-05-09T04:25:34.406Z,64.43
2024-05-09T04:28:01.123Z,64.59
2024-05-09T04:30:36.474Z,63.87
2024-05-09T04:33:08.479Z,63.63
2024-05-09T04:35:37.212Z,62.81
2024-05-09T04:38:04.702Z,62.33
2024-05-09T04:40:34.992Z,60.92
2024-05-09T04:43:04.533Z,61.33
2024-05-09T04:45:31.434Z,61.08
2024-05-09T04:47:58.588Z,60.59
2024-05-09T04:50:35.365Z,60.37
2024-05-09T04:53:05.993Z,59.46
2024-05-09T04:55:33.337Z,59.08
2024-05-09T04:58:00.190Z,59.37
2024-05-09T05:00:34.729Z,59.86
2024-05-09T05:03:10.552Z,60.25
2024-05-09T05:05:42.411Z,59.43
2024-05-09T05:08:13.842Z,59.22
2024-05-09T05:10:41.662Z,58.52
2024-05-09T05:13:21.879Z,58.35
2024-05-09T05:15:52.064Z,58.03
2024-05-09T05:18:19.312Z,57.96
2024-05-09T05:20:46.398Z,57.58
2024-05-09T05:23:15.517Z,56.14
2024-05-09T05:25:42.849Z,55.87
2024-05-09T05:28:09.900Z,55.27
2024-05-09T05:30:41.022Z,55.30
2024-05-09T05:33:11.267Z,55.05
2024-05-09T05:35:38.027Z,54.89
2024-05-09T05:38:06.089Z,53.84
2024-05-09T05:40:36.960Z,53.28
2024-05-09T05:43:09.076Z,52.56
2024-05-09T05:45:36.312Z,51.94
2024-05-09T05:48:06.067Z,50.53
2024-05-09T05:50:36.771Z,47.53
2024-05-09T05:53:09.739Z,44.26
2024-05-09T05:55:39.865Z,41.85
2024-05-09T05:58:10.725Z,37.64
2024-05-09T06:00:39.933Z,36.89
2024-05-09T06:03:09.277Z,37.26
2024-05-09T06:05:40.326Z,35.33
2024-05-09T06:08:08.024Z,36.24
2024-05-09T06:10:38.953Z,35.44
2024-05-09T06:13:08.938Z,33.00
2024-05-09T06:15:35.705Z,32.16
2024-05-09T06:18:06.115Z,34.22
2024-05-09T06:20:36.496Z,32.55
2024-05-09T06:23:09.643Z,33.00
2024-05-09T06:25:37.107Z,31.29
2024-05-09T06:28:04.136Z,29.06
2024-05-09T06:30:38.700Z,28.25
2024-05-09T06:33:10.456Z,26.57
2024-05-09T06:35:38.800Z,25.52
2024-05-09T06:38:06.470Z,25.13
2024-05-09T06:40:37.925Z,26.19
2024-05-09T06:43:18.195Z,25.56
2024-05-09T06:45:48.437Z,25.01
2024-05-09T06:48:21.611Z,24.37
2024-05-09T06:50:49.793Z,25.00
2024-05-09T06:53:17.704Z,25.39
2024-05-09T06:55:44.475Z,24.56
2024-05-09T06:58:11.407Z,23.31
2024-05-09T07:00:40.549Z,21.41
2024-05-09T07:03:10.975Z,20.64
2024-05-09T07:05:39.100Z,24.60
2024-05-09T07:08:06.829Z,24.30
2024-05-09T07:10:35.922Z,23.47
2024-05-09T07:13:07.609Z,23.41
2024-05-09T07:15:34.247Z,23.19
2024-05-09T07:18:01.167Z,23.26
2024-05-09T07:20:34.159Z,21.56
2024-05-09T07:23:03.036Z,23.04
2024-05-09T07:25:30.037Z,22.80
2024-05-09T07:27:56.860Z,22.82
2024-05-09T07:30:32.508Z,22.42
2024-05-09T07:33:01.509Z,22.67
2024-05-09T07:35:28.940Z,21.92
2024-05-09T07:37:55.761Z,22.82
2024-05-09T07:40:32.308Z,24.40
2024-05-09T07:43:07.189Z,24.34
2024-05-09T07:52:23.667Z,26.84
2024-05-09T07:53:38.768Z,26.49
2024-05-09T07:56:09.115Z,25.80
2024-05-09T07:58:36.474Z,27.44
2024-05-09T08:01:03.189Z,28.93
2024-05-09T08:03:30.312Z,28.54
2024-05-09T08:05:57.205Z,28.02
2024-05-09T08:08:23.986Z,28.53
2024-05-09T08:10:51.059Z,28.98
2024-05-09T08:13:17.858Z,28.98
2024-05-09T08:15:44.786Z,29.05
2024-05-09T08:18:11.799Z,28.01
2024-05-09T08:20:39.455Z,28.05
2024-05-09T08:23:06.363Z,28.60
2024-05-09T08:25:33.201Z,28.61
2024-05-09T08:27:59.973Z,28.35
2024-05-09T08:30:33.432Z,27.58
2024-05-09T08:33:04.979Z,28.27
2024-05-09T08:35:32.656Z,28.17
2024-05-09T08:37:59.410Z,28.03
2024-05-09T08:40:33.719Z,29.29
2024-05-09T08:43:10.444Z,29.36
2024-05-09T08:45:43.546Z,29.17
2024-05-09T08:48:12.779Z,30.36
2024-05-09T08:50:42.572Z,30.11
2024-05-09T08:53:09.648Z,29.98
2024-05-09T08:55:41.577Z,30.20
2024-05-09T08:58:15.087Z,29.89
2024-05-09T09:00:43.783Z,30.49
2024-05-09T09:03:15.238Z,30.37
2024-05-09T09:05:51.814Z,30.84
2024-05-09T09:08:18.845Z,31.80
2024-05-09T09:10:47.663Z,31.50
2024-05-09T09:13:14.653Z,32.33
2024-05-09T09:15:50.697Z,32.35
2024-05-09T09:18:18.505Z,32.50
2024-05-09T09:20:45.709Z,32.45
2024-05-09T09:23:12.633Z,32.84
2024-05-09T09:25:40.476Z,32.36
2024-05-09T09:28:08.150Z,31.90
2024-05-09T09:30:37.841Z,31.85
2024-05-09T09:33:11.587Z,31.99
2024-05-09T09:35:40.766Z,31.24
2024-05-09T09:38:08.465Z,31.69
2024-05-09T09:40:42.864Z,32.80
2024-05-09T09:43:20.558Z,30.88
2024-05-09T09:45:51.966Z,32.04
2024-05-09T09:48:21.060Z,31.12
2024-05-09T09:50:48.787Z,31.76
2024-05-09T09:53:16.480Z,31.74
2024-05-09T09:55:43.526Z,32.88
2024-05-09T09:58:13.521Z,32.56
2024-05-09T10:00:42.208Z,31.46
2024-05-09T10:03:09.276Z,31.29
2024-05-09T10:05:36.916Z,31.47
2024-05-09T10:08:06.642Z,31.18
2024-05-09T10:10:35.402Z,30.61
2024-05-09T10:13:06.361Z,30.94
2024-05-09T10:15:48.054Z,29.24
2024-05-09T10:18:15.370Z,30.28
2024-05-09T10:20:43.247Z,29.20
2024-05-09T10:23:23.826Z,29.33
2024-05-09T10:26:05.385Z,30.54
2024-05-09T10:28:35.102Z,30.25
2024-05-09T10:31:10.539Z,30.45
2024-05-09T10:33:38.995Z,29.63
2024-05-09T10:36:21.893Z,29.73
2024-05-09T10:38:49.355Z,30.34
2024-05-09T10:41:20.508Z,30.30
2024-05-09T10:43:48.235Z,29.80
2024-05-09T10:46:15.386Z,29.96
2024-05-09T10:48:44.426Z,29.33
2024-05-09T10:51:11.590Z,30.72
2024-05-09T10:53:42.586Z,30.89
2024-05-09T10:56:09.756Z,30.77
2024-05-09T10:58:36.853Z,30.47
2024-05-09T11:01:06.988Z,30.51
2024-05-09T11:03:35.157Z,30.45
2024-05-09T11:06:02.488Z,30.86
2024-05-09T11:08:31.672Z,30.07
2024-05-09T11:10:59.595Z,30.65
2024-05-09T11:13:30.743Z,30.72
2024-05-09T11:15:58.380Z,30.69
2024-05-09T11:18:28.120Z,31.14
2024-05-09T11:20:57.542Z,30.72
2024-05-09T11:23:30.478Z,30.54
2024-05-09T11:25:58.938Z,30.63
2024-05-09T11:28:28.694Z,30.42
2024-05-09T11:31:08.010Z,29.50
2024-05-09T11:33:39.701Z,30.35
2024-05-09T11:36:07.768Z,30.90
2024-05-09T11:38:34.409Z,31.01
2024-05-09T11:41:02.164Z,30.41
2024-05-09T11:43:28.891Z,30.85
2024-05-09T11:45:57.680Z,30.51
2024-05-09T11:48:25.519Z,31.62
2024-05-09T11:50:54.327Z,30.07
2024-05-09T11:53:21.033Z,29.32
2024-05-09T11:55:47.658Z,30.36
2024-05-09T11:58:17.561Z,30.41
2024-05-09T12:00:45.255Z,29.85
2024-05-09T12:03:12.043Z,30.28
2024-05-09T12:05:38.875Z,30.42
2024-05-09T12:08:06.344Z,29.46
2024-05-09T12:10:35.507Z,29.77
2024-05-09T12:13:05.513Z,29.51
2024-05-09T12:15:36.265Z,30.10
2024-05-09T12:18:04.536Z,29.08
2024-05-09T12:20:37.050Z,30.04
2024-05-09T12:23:06.319Z,30.19
2024-05-09T12:25:33.146Z,30.21
2024-05-09T12:28:00.134Z,29.87
2024-05-09T12:30:35.472Z,29.67
2024-05-09T12:33:06.174Z,29.40
2024-05-09T12:35:33.197Z,29.76
2024-05-09T12:38:00.112Z,31.12
2024-05-09T12:40:35.123Z,30.96
2024-05-09T12:43:06.087Z,30.29
2024-05-09T12:45:33.188Z,30.54
2024-05-09T12:48:00.120Z,29.57
2024-05-09T12:50:32.458Z,29.33
2024-05-09T12:53:02.101Z,28.89
2024-05-09T12:55:33.979Z,28.62
2024-05-09T12:58:08.269Z,29.62
2024-05-09T13:00:35.744Z,30.04
2024-05-09T13:03:03.025Z,29.81
2024-05-09T13:05:30.252Z,29.65
2024-05-09T13:07:57.416Z,29.93
2024-05-09T13:10:31.622Z,28.36
2024-05-09T13:13:01.220Z,28.92
2024-05-09T13:15:29.396Z,28.31
2024-05-09T13:18:00.308Z,27.89
2024-05-09T13:20:33.620Z,27.22
2024-05-09T13:23:04.057Z,28.87
2024-05-09T13:25:30.914Z,28.48
2024-05-09T13:27:58.252Z,28.00
2024-05-09T13:30:33.791Z,28.98
2024-05-09T13:33:06.464Z,28.99
2024-05-09T13:35:35.430Z,28.81
2024-05-09T13:38:03.871Z,28.63
2024-05-09T13:40:34.510Z,28.96
2024-05-09T13:43:04.515Z,28.24
2024-05-09T13:45:31.672Z,27.63
2024-05-09T13:47:58.808Z,28.34
2024-05-09T13:50:33.281Z,27.70
2024-05-09T13:53:03.132Z,28.14
2024-05-09T13:55:29.891Z,28.63
2024-05-09T13:57:56.906Z,28.28
2024-05-09T14:00:37.854Z,28.13
2024-05-09T14:03:10.566Z,27.52
2024-05-09T14:05:37.560Z,27.43
2024-05-09T14:08:04.823Z,28.00
2024-05-09T14:10:32.469Z,27.23
2024-05-09T14:13:00.370Z,27.54
2024-05-09T14:15:27.210Z,27.84
2024-05-09T14:17:55.016Z,27.49
2024-05-09T14:22:51.339Z,27.77
2024-05-09T14:25:18.107Z,28.45
2024-05-09T14:27:44.936Z,27.96
2024-05-09T14:30:18.392Z,28.05
2024-05-09T14:32:52.953Z,28.03
2024-05-09T14:35:19.893Z,27.45
2024-05-09T14:37:46.700Z,27.62
2024-05-09T14:40:30.372Z,27.54
2024-05-09T14:43:03.233Z,27.92
2024-05-09T14:45:30.182Z,28.11
2024-05-09T14:47:57.444Z,27.20
2024-05-09T14:50:34.425Z,26.82
2024-05-09T14:53:04.393Z,27.32
2024-05-09T14:55:31.286Z,27.12
2024-05-09T14:57:58.076Z,27.45
2024-05-09T15:00:29.036Z,27.28
2024-05-09T15:03:00.562Z,27.27
2024-05-09T15:05:27.533Z,26.49
2024-05-09T15:07:54.368Z,26.80
2024-05-09T15:10:27.517Z,28.75
2024-05-09T15:13:01.693Z,28.50
2024-05-09T15:15:28.488Z,27.53
2024-05-09T15:17:55.706Z,27.43
2024-05-09T15:20:31.218Z,27.26
2024-05-09T15:23:02.792Z,27.31
2024-05-09T15:25:29.724Z,27.76
2024-05-09T15:27:56.702Z,28.24
2024-05-09T15:30:30.762Z,27.97
2024-05-09T15:33:00.364Z,28.30
2024-05-09T15:35:27.406Z,28.45
2024-05-09T15:37:54.322Z,29.03
2024-05-09T15:40:26.710Z,27.89
2024-05-09T15:43:02.771Z,28.93
2024-05-09T15:45:29.865Z,27.83
2024-05-09T15:47:57.772Z,28.65
2024-05-09T15:50:36.414Z,28.22
2024-05-09T15:53:07.732Z,28.10
2024-05-09T15:55:35.231Z,28.75
2024-05-09T15:58:03.147Z,28.58
2024-05-09T16:00:37.530Z,28.78
2024-05-09T16:03:08.138Z,28.40
2024-05-09T16:05:34.977Z,28.28
2024-05-09T16:08:02.383Z,29.02
2024-05-09T16:10:32.859Z,28.69
2024-05-09T16:13:01.586Z,29.00
2024-05-09T16:15:28.655Z,28.91
2024-05-09T16:17:55.539Z,28.65
2024-05-09T16:20:34.013Z,29.46
2024-05-09T16:23:06.372Z,29.15
2024-05-09T16:25:33.198Z,29.01
2024-05-09T16:28:00.098Z,28.92
2024-05-09T16:30:33.934Z,28.88
2024-05-09T16:33:05.928Z,29.12
2024-05-09T16:35:34.400Z,29.17
2024-05-09T16:38:03.727Z,29.50
2024-05-09T16:40:37.714Z,28.94
2024-05-09T16:43:07.905Z,29.30
2024-05-09T16:45:35.174Z,28.96
2024-05-09T16:48:02.540Z,29.77
2024-05-09T16:50:34.076Z,29.51
2024-05-09T16:53:03.561Z,29.26
2024-05-09T16:55:30.666Z,29.48
2024-05-09T16:57:58.118Z,29.54
2024-05-09T17:00:35.494Z,29.43
2024-05-09T17:03:09.106Z,30.86
2024-05-09T17:05:36.645Z,31.02
2024-05-09T17:08:03.948Z,31.70
2024-05-09T17:10:33.746Z,31.41
2024-05-09T17:13:03.262Z,31.84
2024-05-09T17:15:31.922Z,32.44
2024-05-09T17:17:58.819Z,32.93
2024-05-09T17:20:32.228Z,33.20
2024-05-09T17:23:02.743Z,32.89
2024-05-09T17:25:29.676Z,33.69
2024-05-09T17:27:57.011Z,34.24
2024-05-09T17:30:32.064Z,34.35
2024-05-09T17:33:04.007Z,34.63
2024-05-09T17:35:31.808Z,34.59
2024-05-09T17:37:59.666Z,35.34
2024-05-09T17:40:33.112Z,35.28
2024-05-09T17:43:03.315Z,35.94
2024-05-09T17:45:30.714Z,36.27
2024-05-09T17:47:58.163Z,36.67
2024-05-09T17:50:31.412Z,36.55
2024-05-09T17:53:02.315Z,37.21
2024-05-09T17:55:29.207Z,38.34
2024-05-09T17:57:56.071Z,38.81
2024-05-09T18:00:33.154Z,39.53
2024-05-09T18:03:06.231Z,40.70
2024-05-09T18:05:35.047Z,40.00
2024-05-09T18:08:02.101Z,40.81
2024-05-09T18:10:35.426Z,41.07
2024-05-09T18:13:06.139Z,41.52
2024-05-09T18:15:33.646Z,41.56
2024-05-09T18:18:01.764Z,41.50
2024-05-09T18:20:37.754Z,42.07
2024-05-09T18:23:10.614Z,42.61
2024-05-09T18:25:37.456Z,43.25
2024-05-09T18:28:04.660Z,43.32
2024-05-09T18:30:34.603Z,43.84
2024-05-09T18:33:05.099Z,44.18
2024-05-09T18:35:33.144Z,44.32
2024-05-09T18:37:59.949Z,43.62
2024-05-09T18:40:33.727Z,42.84
2024-05-09T18:43:04.894Z,44.19
2024-05-09T18:45:32.894Z,45.83
2024-05-09T18:47:59.717Z,46.11
2024-05-09T18:50:34.859Z,46.22
2024-05-09T18:53:08.475Z,47.85
2024-05-09T18:55:35.439Z,47.53
2024-05-09T18:58:03.093Z,48.11
2024-05-09T19:00:35.677Z,46.50
2024-05-09T19:03:09.334Z,46.14
2024-05-09T19:05:39.016Z,47.58
2024-05-09T19:08:07.317Z,48.57
2024-05-09T19:10:35.504Z,48.90
2024-05-09T19:13:08.155Z,48.91
2024-05-09T19:15:38.776Z,49.45
2024-05-09T19:18:06.548Z,50.99
2024-05-09T19:20:35.090Z,48.83
2024-05-09T19:23:03.542Z,49.73
2024-05-09T19:25:30.753Z,47.86
2024-05-09T19:27:57.585Z,47.36
2024-05-09T19:30:32.968Z,50.55
2024-05-09T19:33:06.144Z,51.49
2024-05-09T19:35:33.203Z,51.47
2024-05-09T19:38:00.151Z,51.79
2024-05-09T19:40:31.238Z,52.89
2024-05-09T19:43:00.186Z,54.00
2024-05-09T19:45:27.076Z,53.66
2024-05-09T19:47:53.881Z,53.59
2024-05-09T19:50:27.064Z,54.21
2024-05-09T19:53:03.020Z,54.13
2024-05-09T19:55:29.799Z,54.38
2024-05-09T19:57:56.944Z,55.04
2024-05-09T20:00:32.444Z,54.83
2024-05-09T20:03:03.117Z,55.12
2024-05-09T20:05:33.300Z,55.38
2024-05-09T20:08:00.164Z,54.83
2024-05-09T20:10:31.975Z,55.70
2024-05-09T20:13:00.980Z,55.64
2024-05-09T20:15:27.762Z,55.73
2024-05-09T20:17:55.102Z,55.80
2024-05-09T20:20:32.464Z,56.55
2024-05-09T20:23:04.275Z,56.21
2024-05-09T20:25:30.907Z,55.73
2024-05-09T20:27:57.744Z,56.84
2024-05-09T20:30:31.290Z,56.90
2024-05-09T20:33:01.321Z,56.95
2024-05-09T20:35:32.020Z,56.29
2024-05-09T20:37:59.368Z,57.03
2024-05-09T20:40:32.483Z,57.87
2024-05-09T20:43:02.810Z,57.86
2024-05-09T20:45:29.838Z,58.48
2024-05-09T20:47:57.350Z,60.14
2024-05-09T20:50:35.073Z,59.51
2024-05-09T20:53:06.138Z,58.88
2024-05-09T20:55:32.790Z,59.75
2024-05-09T20:57:59.469Z,60.78
2024-05-09T21:00:35.139Z,60.87
2024-05-09T21:03:07.202Z,62.01
2024-05-09T21:05:34.995Z,62.17
2024-05-09T21:08:02.225Z,61.56
2024-05-09T21:10:32.834Z,62.66
2024-05-09T21:13:02.096Z,63.47
2024-05-09T21:15:29.483Z,63.26
2024-05-09T21:17:56.331Z,63.85
2024-05-09T21:20:28.897Z,63.43
2024-05-09T21:22:58.468Z,64.73
2024-05-09T21:25:25.448Z,64.47
2024-05-09T21:27:52.848Z,64.65
2024-05-09T21:30:31.546Z,64.76
2024-05-09T21:33:07.868Z,65.31
2024-05-09T21:35:34.736Z,66.31
2024-05-09T21:38:01.483Z,65.33
2024-05-09T21:40:34.170Z,65.66
2024-05-09T21:43:03.490Z,64.77
2024-05-09T21:45:30.505Z,65.52
2024-05-09T21:47:57.502Z,65.84
2024-05-09T21:50:32.163Z,65.99
2024-05-09T21:53:06.120Z,67.37
2024-05-09T21:55:32.860Z,66.87
2024-05-09T21:57:59.600Z,65.15
2024-05-09T22:00:34.523Z,65.44
2024-05-09T22:03:04.917Z,64.07
2024-05-09T22:05:32.015Z,63.06
2024-05-09T22:07:58.932Z,63.16
2024-05-09T22:10:30.697Z,62.71
2024-05-09T22:13:01.271Z,63.73
2024-05-09T22:15:28.052Z,64.46
2024-05-09T22:17:57.299Z,65.70
2024-05-09T22:20:34.256Z,65.27
2024-05-09T22:23:04.887Z,64.77
2024-05-09T22:25:32.514Z,66.20
2024-05-09T22:28:00.684Z,65.82
2024-05-09T22:30:34.827Z,66.05
2024-05-09T22:33:06.057Z,65.06
2024-05-09T22:35:33.111Z,65.70
2024-05-09T22:37:59.869Z,65.58
2024-05-09T22:40:38.208Z,66.04
2024-05-09T22:43:13.167Z,66.36
2024-05-09T22:45:40.254Z,66.47
2024-05-09T22:48:08.447Z,66.83
2024-05-09T22:50:35.424Z,66.75
2024-05-09T22:53:02.252Z,66.46
2024-05-09T22:55:29.186Z,66.88
2024-05-09T22:57:56.224Z,66.96
2024-05-09T23:00:30.997Z,67.22
2024-05-09T23:03:00.867Z,67.27
2024-05-09T23:05:28.399Z,67.19
2024-05-09T23:07:55.215Z,67.68
2024-05-09T23:10:28.429Z,67.84
2024-05-09T23:13:01.731Z,67.89
2024-05-09T23:15:28.793Z,68.15
2024-05-09T23:17:55.572Z,68.22
2024-05-09T23:20:33.096Z,67.77
2024-05-09T23:23:04.892Z,68.81
2024-05-09T23:25:31.587Z,68.64
2024-05-09T23:27:58.390Z,69.01
2024-05-09T23:32:54.921Z,67.41
2024-05-09T23:35:21.673Z,69.18
2024-05-09T23:37:48.434Z,70.52
2024-05-09T23:40:18.802Z,71.15
2024-05-09T23:42:49.448Z,71.64
2024-05-09T23:45:16.260Z,71.81
2024-05-09T23:47:43.209Z,71.33
2024-05-09T23:50:16.757Z,72.42
2024-05-09T23:52:50.086Z,71.63
2024-05-09T23:55:16.819Z,72.19
2024-05-09T23:57:43.458Z,72.02
